Time;durP1;ratioP1;P1;durP2;ratioP2;P2;SDS_P1;SDS_P2;PMS_P1;PMS_P2;Temp;Humidity;BMP_temperature;BMP_pressure;BME280_temperature;BME280_humidity;BME280_pressure;Samples;Min_cycle;Max_cycle;Signal;HPM_P1;HPM_P2
2021/07/04 00:02:02;;;;;;;17.65;16.15;;;15.60;99.90;;;;;;5043787;28;20479;-56
2021/07/04 00:04:27;;;;;;;18.13;16.40;;;15.70;99.90;;;;;;5049243;28;20296;-56
2021/07/04 00:06:53;;;;;;;18.80;17.00;;;15.70;99.90;;;;;;5036777;28;20980;-57
2021/07/04 00:09:19;;;;;;;18.23;16.63;;;15.60;99.90;;;;;;5050229;28;20270;-56
2021/07/04 00:11:45;;;;;;;19.37;17.50;;;15.60;99.90;;;;;;5043279;28;20196;-55
2021/07/04 00:14:11;;;;;;;18.38;16.73;;;15.50;99.90;;;;;;5041777;28;20337;-54
2021/07/04 00:16:37;;;;;;;17.75;16.15;;;15.40;99.90;;;;;;5046160;28;20257;-56
2021/07/04 00:19:03;;;;;;;18.50;16.80;;;15.50;99.90;;;;;;5039651;28;20241;-56
2021/07/04 00:21:28;;;;;;;19.00;17.40;;;15.40;99.90;;;;;;5039400;28;20437;-54
2021/07/04 00:23:54;;;;;;;19.87;17.90;;;15.40;99.90;;;;;;5047408;28;20992;-54
2021/07/04 00:26:19;;;;;;;19.27;17.53;;;15.40;99.90;;;;;;5035544;28;20204;-56
2021/07/04 00:28:45;;;;;;;18.70;17.00;;;15.40;99.90;;;;;;5045717;28;20544;-51
2021/07/04 00:31:11;;;;;;;17.93;16.23;;;15.40;98.90;;;;;;5040801;28;20193;-53
2021/07/04 00:33:37;;;;;;;17.57;15.97;;;15.30;99.70;;;;;;5034269;28;20293;-52
2021/07/04 00:36:04;;;;;;;18.47;16.80;;;15.30;99.90;;;;;;5034046;28;20178;-57
2021/07/04 00:38:29;;;;;;;17.67;16.17;;;15.20;99.90;;;;;;5033927;28;20188;-53
2021/07/04 00:40:55;;;;;;;17.07;15.67;;;15.20;99.90;;;;;;5041973;28;20422;-54
2021/07/04 00:43:21;;;;;;;17.80;16.10;;;15.10;99.90;;;;;;5029070;28;20202;-54
2021/07/04 00:45:46;;;;;;;17.80;16.20;;;15.10;99.90;;;;;;5028786;28;20190;-56
2021/07/04 00:48:14;;;;;;;18.33;16.70;;;15.10;99.90;;;;;;5039552;28;20201;-56
2021/07/04 00:50:39;;;;;;;19.10;17.30;;;15.10;99.90;;;;;;5046997;28;20242;-56
2021/07/04 00:53:06;;;;;;;18.73;17.03;;;15.00;99.90;;;;;;5048973;28;20960;-56
2021/07/04 00:55:32;;;;;;;18.63;16.93;;;14.90;99.90;;;;;;5046175;28;20177;-55
2021/07/04 00:57:58;;;;;;;18.67;16.77;;;14.90;99.90;;;;;;5042194;28;20442;-55
2021/07/04 01:00:26;;;;;;;18.20;16.60;;;14.90;99.90;;;;;;5033466;28;21026;-52
2021/07/04 01:02:52;;;;;;;18.10;16.40;;;14.80;99.90;;;;;;5030283;28;20189;-55
2021/07/04 01:05:22;;;;;;;19.23;17.43;;;14.80;99.90;;;;;;5034427;28;20445;-55
2021/07/04 01:07:48;;;;;;;18.83;17.05;;;14.80;99.90;;;;;;5029934;28;20193;-55
2021/07/04 01:10:16;;;;;;;18.97;17.20;;;14.80;99.90;;;;;;5028055;28;20684;-54
2021/07/04 01:12:43;;;;;;;18.53;16.90;;;14.80;99.90;;;;;;5031800;28;20988;-56
2021/07/04 01:15:09;;;;;;;20.17;18.07;;;14.70;99.90;;;;;;5044601;28;20515;-55
2021/07/04 01:17:37;;;;;;;18.77;17.08;;;14.60;99.90;;;;;;5052174;28;20417;-53
2021/07/04 01:20:09;;;;;;;18.97;17.03;;;14.60;99.90;;;;;;5050058;28;20214;-57
2021/07/04 01:22:39;;;;;;;19.07;16.87;;;14.60;99.90;;;;;;5038854;28;20460;-54
2021/07/04 01:25:09;;;;;;;18.73;16.88;;;14.60;99.90;;;;;;5047854;28;20422;-54
2021/07/04 01:27:36;;;;;;;18.53;16.73;;;14.60;99.90;;;;;;5039651;28;20423;-56
2021/07/04 01:30:05;;;;;;;19.10;17.40;;;14.60;99.90;;;;;;5046914;28;20892;-56
2021/07/04 01:32:31;;;;;;;18.03;16.23;;;14.60;99.90;;;;;;5032128;28;20475;-57
2021/07/04 01:34:56;;;;;;;19.50;17.70;;;14.60;99.90;;;;;;5032821;28;21210;-55
2021/07/04 01:37:22;;;;;;;18.37;16.77;;;14.50;99.90;;;;;;5041944;28;20568;-53
2021/07/04 01:39:47;;;;;;;18.93;17.03;;;14.50;99.90;;;;;;5038245;28;20661;-54
2021/07/04 01:42:13;;;;;;;18.33;16.43;;;14.40;99.90;;;;;;5052391;28;20166;-55
2021/07/04 01:44:38;;;;;;;19.10;17.30;;;14.40;99.90;;;;;;5051655;28;20196;-53
2021/07/04 01:47:04;;;;;;;18.77;17.07;;;14.40;99.90;;;;;;5052113;28;20184;-56
2021/07/04 01:49:30;;;;;;;17.97;16.27;;;14.40;99.90;;;;;;5048509;28;20203;-55
2021/07/04 01:51:55;;;;;;;19.30;17.50;;;14.40;99.90;;;;;;5051997;28;20188;-51
2021/07/04 01:54:21;;;;;;;19.80;17.57;;;14.40;99.90;;;;;;5050942;28;20250;-56
2021/07/04 01:56:47;;;;;;;19.95;18.17;;;14.30;99.90;;;;;;5051900;28;20170;-55
2021/07/04 01:59:12;;;;;;;19.70;17.80;;;14.30;99.90;;;;;;5048440;28;20174;-55
2021/07/04 02:01:38;;;;;;;18.43;16.77;;;14.30;99.90;;;;;;5051706;28;20628;-55
2021/07/04 02:04:03;;;;;;;19.33;17.50;;;14.30;99.90;;;;;;5051680;28;20176;-55
2021/07/04 02:06:31;;;;;;;19.70;17.80;;;14.30;99.90;;;;;;5068507;28;20198;-53
2021/07/04 02:08:56;;;;;;;19.10;17.30;;;14.30;99.90;;;;;;5053413;28;20184;-56
2021/07/04 02:11:22;;;;;;;18.20;16.30;;;14.20;99.90;;;;;;5051731;28;20225;-57
2021/07/04 02:13:49;;;;;;;17.90;16.30;;;14.30;99.90;;;;;;5053901;28;20262;-56
2021/07/04 02:16:14;;;;;;;17.60;15.80;;;14.30;99.90;;;;;;5042218;28;20174;-57
2021/07/04 02:18:41;;;;;;;18.23;16.43;;;14.30;99.90;;;;;;5037329;28;20433;-54
2021/07/04 02:21:07;;;;;;;19.10;17.30;;;14.30;99.90;;;;;;5051343;28;20589;-55
2021/07/04 02:23:33;;;;;;;18.30;16.53;;;14.30;99.90;;;;;;5040343;28;20425;-56
2021/07/04 02:25:59;;;;;;;18.77;16.97;;;14.20;99.90;;;;;;5031379;28;20187;-55
2021/07/04 02:28:27;;;;;;;20.43;18.43;;;14.20;99.90;;;;;;5042020;28;20187;-55
2021/07/04 02:30:54;;;;;;;18.10;16.30;;;14.20;99.90;;;;;;5032134;28;20429;-56
2021/07/04 02:33:21;;;;;;;19.10;17.17;;;14.10;99.90;;;;;;5032946;28;20453;-54
2021/07/04 02:35:50;;;;;;;18.30;16.60;;;14.10;99.90;;;;;;5050990;28;20528;-56
2021/07/04 02:38:17;;;;;;;18.00;16.27;;;14.10;99.90;;;;;;5050805;28;20502;-55
2021/07/04 02:40:43;;;;;;;18.33;16.73;;;14.10;99.90;;;;;;5050862;28;20513;-55
2021/07/04 02:43:11;;;;;;;19.30;17.47;;;14.10;99.90;;;;;;5038824;28;20455;-53
2021/07/04 02:45:37;;;;;;;18.77;16.77;;;14.00;99.90;;;;;;5032238;28;20764;-56
2021/07/04 02:48:04;;;;;;;18.00;16.30;;;14.00;99.90;;;;;;5045562;28;20513;-55
2021/07/04 02:50:29;;;;;;;17.13;15.60;;;13.90;99.90;;;;;;5031834;28;20441;-53
2021/07/04 02:52:55;;;;;;;17.93;16.13;;;13.90;99.90;;;;;;5043906;28;20545;-55
2021/07/04 02:55:22;;;;;;;18.30;16.60;;;13.90;99.90;;;;;;5042751;28;20177;-52
2021/07/04 02:57:48;;;;;;;19.33;17.47;;;13.90;99.90;;;;;;5049747;28;20418;-56
2021/07/04 03:00:20;;;;;;;18.47;16.47;;;13.90;99.90;;;;;;5040911;28;20455;-54
2021/07/04 03:02:46;;;;;;;19.33;17.43;;;13.90;99.90;;;;;;5033035;28;20994;-56
2021/07/04 03:05:12;;;;;;;18.40;16.70;;;13.90;99.90;;;;;;5029963;28;20839;-54
2021/07/04 03:07:38;;;;;;;19.80;17.80;;;13.80;99.90;;;;;;5033242;28;20512;-55
2021/07/04 03:10:09;;;;;;;18.40;16.70;;;13.80;99.90;;;;;;5046233;28;20242;-55
2021/07/04 03:12:35;;;;;;;18.13;16.50;;;13.80;99.90;;;;;;5039789;28;20439;-54
2021/07/04 03:15:02;;;;;;;18.90;17.10;;;13.80;99.90;;;;;;5039599;28;20436;-56
2021/07/04 03:17:27;;;;;;;18.63;16.87;;;13.80;99.90;;;;;;5054222;28;20178;-56
2021/07/04 03:19:54;;;;;;;19.17;17.20;;;13.70;99.90;;;;;;5058651;28;20495;-53
2021/07/04 03:22:19;;;;;;;18.10;16.40;;;13.80;99.90;;;;;;5045251;28;20175;-57
2021/07/04 03:24:45;;;;;;;19.93;17.83;;;13.70;99.90;;;;;;5038746;28;20477;-56
2021/07/04 03:27:11;;;;;;;19.83;17.57;;;13.70;99.90;;;;;;5049965;28;20212;-54
2021/07/04 03:29:36;;;;;;;19.83;17.67;;;13.70;99.90;;;;;;5048997;28;20517;-55
2021/07/04 03:32:04;;;;;;;18.07;16.37;;;13.70;99.90;;;;;;5050157;28;20187;-56
2021/07/04 03:34:30;;;;;;;19.40;17.50;;;13.60;99.90;;;;;;5050150;28;20191;-53
2021/07/04 03:36:55;;;;;;;19.33;17.50;;;13.60;99.90;;;;;;5049196;28;20843;-53
2021/07/04 03:39:21;;;;;;;18.93;17.07;;;13.70;99.90;;;;;;5049901;28;20164;-54
2021/07/04 03:41:47;;;;;;;19.70;17.80;;;13.70;99.90;;;;;;5037102;28;20653;-55
2021/07/04 03:44:12;;;;;;;20.03;18.00;;;13.70;99.90;;;;;;5035094;28;20218;-54
2021/07/04 03:46:38;;;;;;;19.50;17.70;;;13.70;99.90;;;;;;5049820;28;20205;-56
2021/07/04 03:49:04;;;;;;;20.97;18.97;;;13.70;99.90;;;;;;5049959;28;20179;-55
2021/07/04 03:51:29;;;;;;;19.43;17.63;;;13.70;99.90;;;;;;5049869;28;20178;-56
2021/07/04 03:53:55;;;;;;;19.33;17.40;;;13.70;99.90;;;;;;5048641;28;20214;-54
2021/07/04 03:56:20;;;;;;;20.17;18.20;;;13.70;99.90;;;;;;5049829;28;20446;-56
2021/07/04 03:58:46;;;;;;;20.23;18.23;;;13.80;99.90;;;;;;5049443;28;20269;-56
2021/07/04 04:01:18;;;;;;;20.83;18.83;;;13.70;99.90;;;;;;5046945;28;20218;-57
2021/07/04 04:03:49;;;;;;;20.07;18.07;;;13.70;99.90;;;;;;5047622;28;20482;-52
2021/07/04 04:06:15;;;;;;;19.07;17.20;;;13.70;99.90;;;;;;5048148;28;20437;-54
2021/07/04 04:08:42;;;;;;;20.23;18.23;;;13.80;99.90;;;;;;5049024;28;20474;-55
2021/07/04 04:11:09;;;;;;;19.33;17.13;;;13.80;99.90;;;;;;5044557;28;20920;-57
2021/07/04 04:13:35;;;;;;;19.60;17.80;;;13.80;99.90;;;;;;5030227;28;20490;-54
2021/07/04 04:16:01;;;;;;;17.93;16.23;;;13.80;99.90;;;;;;5047834;28;20521;-54
2021/07/04 04:18:27;;;;;;;18.20;16.50;;;13.90;99.90;;;;;;5046614;28;20186;-56
2021/07/04 04:20:52;;;;;;;17.30;15.70;;;13.80;99.90;;;;;;5057492;28;20962;-55
2021/07/04 04:23:18;;;;;;;17.77;16.00;;;13.90;99.90;;;;;;5049194;28;20200;-56
2021/07/04 04:25:43;;;;;;;18.27;16.23;;;14.00;99.90;;;;;;5048461;28;20205;-52
2021/07/04 04:28:09;;;;;;;18.93;17.03;;;13.90;99.90;;;;;;5049483;28;20682;-56
2021/07/04 04:30:37;;;;;;;17.77;16.07;;;14.00;99.90;;;;;;5048414;28;20190;-54
2021/07/04 04:33:03;;;;;;;17.53;15.50;;;14.00;99.90;;;;;;5046537;28;20952;-56
2021/07/04 04:35:29;;;;;;;17.80;16.10;;;14.10;99.90;;;;;;5029485;28;20413;-56
2021/07/04 04:37:56;;;;;;;17.90;16.10;;;14.10;99.90;;;;;;5028448;28;20399;-55
2021/07/04 04:40:22;;;;;;;18.03;16.43;;;14.10;99.90;;;;;;5048166;28;20184;-56
2021/07/04 04:42:47;;;;;;;18.30;16.50;;;14.20;99.90;;;;;;5047385;28;20862;-56
2021/07/04 04:45:13;;;;;;;16.90;15.40;;;14.30;99.90;;;;;;5048096;28;20514;-53
2021/07/04 04:47:39;;;;;;;17.40;15.90;;;14.30;99.90;;;;;;5051143;28;20305;-55
2021/07/04 04:50:06;;;;;;;16.23;14.83;;;14.30;99.90;;;;;;5052161;28;20589;-55
2021/07/04 04:52:32;;;;;;;17.30;15.70;;;14.40;99.90;;;;;;5039488;28;20697;-55
2021/07/04 04:54:57;;;;;;;16.80;15.30;;;14.40;99.90;;;;;;5060791;28;20539;-55
2021/07/04 04:57:23;;;;;;;17.63;16.03;;;14.50;99.90;;;;;;5052820;28;20276;-56
2021/07/04 04:59:48;;;;;;;17.00;15.40;;;14.60;99.90;;;;;;5046370;28;20736;-53
2021/07/04 05:02:14;;;;;;;18.00;16.30;;;14.50;99.90;;;;;;5034068;28;20192;-54
2021/07/04 05:04:40;;;;;;;18.30;15.33;;;14.50;99.90;;;;;;5032564;28;20193;-54
2021/07/04 05:07:07;;;;;;;17.63;15.97;;;14.60;99.90;;;;;;5046965;28;20248;-51
2021/07/04 05:09:32;;;;;;;17.33;15.60;;;14.70;99.90;;;;;;5051108;28;20270;-57
2021/07/04 05:11:58;;;;;;;18.00;16.30;;;14.70;99.90;;;;;;5047440;28;20545;-55
2021/07/04 05:14:23;;;;;;;16.00;14.60;;;14.80;99.90;;;;;;5042298;28;20252;-56
2021/07/04 05:16:49;;;;;;;16.40;14.80;;;14.90;99.90;;;;;;5052492;28;20202;-52
2021/07/04 05:19:15;;;;;;;17.07;15.57;;;14.90;99.90;;;;;;5043701;28;20220;-57
2021/07/04 05:21:41;;;;;;;16.80;15.40;;;15.00;99.90;;;;;;5031351;28;20195;-53
2021/07/04 05:24:10;;;;;;;16.63;15.03;;;15.10;97.80;;;;;;5034691;28;20205;-56
2021/07/04 05:26:36;;;;;;;16.30;14.70;;;15.10;98.30;;;;;;5036350;28;20487;-57
2021/07/04 05:29:02;;;;;;;17.13;15.37;;;15.20;97.60;;;;;;5040042;28;20444;-56
2021/07/04 05:31:28;;;;;;;17.47;15.97;;;15.20;97.40;;;;;;5043401;28;20200;-54
2021/07/04 05:33:54;;;;;;;15.90;14.30;;;15.30;98.70;;;;;;5039110;28;20527;-54
2021/07/04 05:36:20;;;;;;;15.90;14.33;;;15.40;95.30;;;;;;5051007;28;20703;-56
2021/07/04 05:38:46;;;;;;;14.90;13.60;;;15.60;90.70;;;;;;5052168;28;20559;-53
2021/07/04 05:41:13;;;;;;;15.13;13.83;;;15.70;89.60;;;;;;5050748;28;20190;-53
2021/07/04 05:43:41;;;;;;;15.50;14.10;;;15.80;85.10;;;;;;5032058;28;20505;-53
2021/07/04 05:46:07;;;;;;;15.50;14.20;;;15.90;77.80;;;;;;5032474;28;20427;-57
2021/07/04 05:48:33;;;;;;;16.23;14.83;;;16.10;68.70;;;;;;5043611;28;20438;-52
2021/07/04 05:50:59;;;;;;;16.07;14.60;;;16.20;59.10;;;;;;5034049;28;20427;-51
2021/07/04 05:53:25;;;;;;;14.87;13.57;;;16.20;54.30;;;;;;5047703;28;20725;-52
2021/07/04 05:55:51;;;;;;;14.90;13.60;;;16.30;58.90;;;;;;5043806;28;20928;-55
2021/07/04 05:58:16;;;;;;;14.57;13.32;;;16.50;51.70;;;;;;5041434;28;20189;-54
2021/07/04 06:00:42;;;;;;;14.83;13.20;;;16.60;47.20;;;;;;5044645;28;20228;-52
2021/07/04 06:03:08;;;;;;;14.13;12.93;;;16.70;39.40;;;;;;5050581;28;20562;-54
2021/07/04 06:05:33;;;;;;;13.97;12.80;;;16.80;32.90;;;;;;5037762;28;20291;-55
2021/07/04 06:07:59;;;;;;;13.50;12.40;;;16.80;21.90;;;;;;5031435;28;20264;-51
2021/07/04 06:10:25;;;;;;;14.40;13.20;;;17.00;15.50;;;;;;5045551;28;20185;-53
2021/07/04 06:12:50;;;;;;;14.07;12.80;;;17.00;18.70;;;;;;5039619;28;20295;-56
2021/07/04 06:15:16;;;;;;;13.50;12.40;;;17.10;17.70;;;;;;5040515;28;20181;-56
2021/07/04 06:17:42;;;;;;;13.70;12.50;;;17.20;15.80;;;;;;5031109;28;20200;-54
2021/07/04 06:20:10;;;;;;;13.40;12.20;;;17.30;13.80;;;;;;5043715;28;20184;-54
2021/07/04 06:22:37;;;;;;;14.07;12.80;;;17.40;12.80;;;;;;5049155;28;20527;-56
2021/07/04 06:25:04;;;;;;;13.63;12.33;;;17.50;5.70;;;;;;5051086;28;20546;-55
2021/07/04 06:27:30;;;;;;;12.80;11.80;;;17.70;4.60;;;;;;5032237;28;20444;-51
2021/07/04 06:29:56;;;;;;;13.37;12.23;;;17.80;1.00;;;;;;5049574;28;20459;-55
2021/07/04 06:32:21;;;;;;;12.53;11.53;;;18.00;1.00;;;;;;5037202;28;20188;-55
2021/07/04 06:34:47;;;;;;;12.70;11.60;;;18.10;1.00;;;;;;5049408;28;20213;-53
2021/07/04 06:37:12;;;;;;;12.60;11.60;;;18.40;1.00;;;;;;5049765;28;20549;-56
2021/07/04 06:39:38;;;;;;;13.10;11.93;;;18.40;1.00;;;;;;5050530;28;20191;-55
2021/07/04 06:42:04;;;;;;;12.30;11.33;;;18.50;1.00;;;;;;5037929;28;20189;-53
2021/07/04 06:44:29;;;;;;;13.27;12.23;;;18.50;1.00;;;;;;5031019;28;20244;-54
2021/07/04 06:46:55;;;;;;;11.70;10.70;;;18.70;1.00;;;;;;5042004;28;20695;-54
2021/07/04 06:49:20;;;;;;;12.33;11.30;;;18.90;1.00;;;;;;5041597;28;20178;-55
2021/07/04 06:51:46;;;;;;;12.50;11.50;;;18.90;1.00;;;;;;5034629;28;20190;-55
2021/07/04 06:54:12;;;;;;;12.20;11.30;;;19.10;1.00;;;;;;5049589;28;20192;-50
2021/07/04 06:56:37;;;;;;;11.70;10.77;;;19.30;1.00;;;;;;5049613;28;20280;-56
2021/07/04 06:59:03;;;;;;;12.10;11.10;;;19.50;1.00;;;;;;5032972;28;20186;-54
2021/07/04 07:01:28;;;;;;;11.30;10.40;;;19.60;1.00;;;;;;5053938;28;20229;-51
2021/07/04 07:03:54;;;;;;;12.33;11.33;;;19.80;1.00;;;;;;5053274;28;20204;-55
2021/07/04 07:06:20;;;;;;;11.23;10.33;;;19.90;1.00;;;;;;5048419;28;20188;-56
2021/07/04 07:08:47;;;;;;;12.00;11.10;;;20.00;1.00;;;;;;5046313;28;20200;-50
2021/07/04 07:11:13;;;;;;;12.23;11.33;;;20.30;1.00;;;;;;5045802;28;20450;-53
2021/07/04 07:13:39;;;;;;;11.37;10.40;;;20.40;1.00;;;;;;5044395;28;20467;-54
2021/07/04 07:16:04;;;;;;;13.03;12.03;;;20.50;1.00;;;;;;5048294;28;20469;-53
2021/07/04 07:18:30;;;;;;;11.10;10.30;;;20.60;1.00;;;;;;5047808;28;20205;-53
2021/07/04 07:20:56;;;;;;;10.70;9.90;;;20.80;1.00;;;;;;5044639;28;20187;-49
2021/07/04 07:23:21;;;;;;;10.60;9.90;;;21.00;1.00;;;;;;5047033;28;20438;-54
2021/07/04 07:25:47;;;;;;;11.53;10.73;;;21.10;99.90;;;;;;5045148;28;20193;-56
2021/07/04 07:28:13;;;;;;;11.90;11.10;;;21.10;99.90;;;;;;5040092;28;20211;-55
2021/07/04 07:30:38;;;;;;;12.27;11.10;;;21.30;99.90;;;;;;5043105;28;20208;-51
2021/07/04 07:33:04;;;;;;;11.53;10.73;;;21.30;99.90;;;;;;5034961;28;20825;-54
2021/07/04 07:35:32;;;;;;;11.47;10.63;;;21.30;99.90;;;;;;5043849;28;20224;-54
2021/07/04 07:38:01;;;;;;;11.07;10.27;;;21.50;1.00;;;;;;5041741;28;20173;-51
2021/07/04 07:40:27;;;;;;;10.83;10.00;;;21.60;99.90;;;;;;5056519;28;20431;-53
2021/07/04 07:42:52;;;;;;;10.70;9.90;;;21.70;38.00;;;;;;5049234;28;22002;-53
2021/07/04 07:45:18;;;;;;;10.80;9.90;;;21.70;99.90;;;;;;5042947;28;20205;-54
2021/07/04 07:47:43;;;;;;;10.70;10.00;;;21.80;1.00;;;;;;5036239;28;20628;-54
2021/07/04 07:50:10;;;;;;;10.17;9.47;;;21.90;1.00;;;;;;5042361;28;20184;-56
2021/07/04 07:52:35;;;;;;;10.57;9.77;;;22.00;1.00;;;;;;5042550;28;20296;-54
2021/07/04 07:55:01;;;;;;;10.63;9.93;;;22.10;18.80;;;;;;5047774;28;20531;-53
2021/07/04 07:57:26;;;;;;;9.83;9.13;;;22.20;99.90;;;;;;5047358;28;20743;-53
2021/07/04 07:59:52;;;;;;;10.30;9.40;;;22.40;1.00;;;;;;5048338;28;20577;-54
2021/07/04 08:02:18;;;;;;;9.43;8.73;;;22.60;1.00;;;;;;5048987;28;20229;-55
2021/07/04 08:04:43;;;;;;;9.80;9.10;;;22.80;99.90;;;;;;5048437;28;20222;-54
2021/07/04 08:07:09;;;;;;;9.47;8.63;;;23.00;1.00;;;;;;5047383;28;20667;-52
2021/07/04 08:09:34;;;;;;;9.30;8.70;;;23.20;1.00;;;;;;5049056;28;20637;-56
2021/07/04 08:12:00;;;;;;;9.20;8.60;;;23.40;1.00;;;;;;5044742;28;20544;-55
2021/07/04 08:14:25;;;;;;;9.07;8.47;;;23.50;90.70;;;;;;5048834;28;20206;-52
2021/07/04 08:16:51;;;;;;;9.63;8.93;;;23.50;1.00;;;;;;5048735;28;20185;-51
2021/07/04 08:19:17;;;;;;;9.20;8.60;;;23.70;1.00;;;;;;5048602;28;20636;-50
2021/07/04 08:21:45;;;;;;;9.40;8.80;;;23.80;99.90;;;;;;5048212;28;20182;-54
2021/07/04 08:24:11;;;;;;;8.70;8.20;;;24.00;99.90;;;;;;5042085;28;20185;-55
2021/07/04 08:26:37;;;;;;;8.40;7.90;;;24.20;99.90;;;;;;5046486;28;20455;-54
2021/07/04 08:29:03;;;;;;;8.83;8.33;;;24.30;1.00;;;;;;5048462;28;20186;-52
2021/07/04 08:31:29;;;;;;;8.43;7.93;;;24.50;1.00;;;;;;5048670;28;20431;-53
2021/07/04 08:33:54;;;;;;;8.70;8.10;;;24.70;1.00;;;;;;5041772;28;20210;-54
2021/07/04 08:36:21;;;;;;;9.47;8.77;;;24.80;1.00;;;;;;5047835;28;20199;-54
2021/07/04 08:38:47;;;;;;;9.10;8.50;;;24.90;1.00;;;;;;5042972;28;20992;-53
2021/07/04 08:41:13;;;;;;;9.40;8.80;;;25.00;1.00;;;;;;5042615;28;20512;-54
2021/07/04 08:43:40;;;;;;;8.87;8.27;;;25.20;1.00;;;;;;5047970;28;20260;-50
2021/07/04 08:46:06;;;;;;;8.23;7.73;;;25.40;1.00;;;;;;5048784;28;20566;-55
2021/07/04 08:48:34;;;;;;;7.57;7.07;;;25.40;1.00;;;;;;5048551;28;20478;-48
2021/07/04 08:51:00;;;;;;;7.57;6.87;;;25.50;99.90;;;;;;5047972;28;20933;-50
2021/07/04 08:53:26;;;;;;;7.37;6.97;;;25.60;99.90;;;;;;5048365;28;20460;-53
2021/07/04 08:55:51;;;;;;;9.00;8.40;;;25.80;99.90;;;;;;5048630;28;20435;-49
2021/07/04 08:58:22;;;;;;;8.77;8.27;;;25.90;99.90;;;;;;5043384;28;20254;-51
2021/07/04 09:01:26;;;;;;;8.43;7.82;;;25.80;99.90;;;;;;5029610;28;20234;-51
2021/07/04 09:04:05;;;;;;;8.80;8.20;;;26.00;99.90;;;;;;4996685;28;20270;-54
2021/07/04 09:06:39;;;;;;;9.47;8.80;;;26.20;99.90;;;;;;5005763;28;20448;-53
2021/07/04 09:09:27;;;;;;;8.43;7.93;;;26.20;99.90;;;;;;5000599;28;20842;-56
2021/07/04 09:12:11;;;;;;;9.37;8.87;;;26.30;99.90;;;;;;5004694;28;20442;-54
2021/07/04 09:14:40;;;;;;;9.60;9.00;;;26.50;99.90;;;;;;5000766;28;20518;-55
2021/07/04 09:17:10;;;;;;;9.63;8.93;;;26.60;99.90;;;;;;5005095;28;20430;-53
2021/07/04 09:19:56;;;;;;;9.10;8.50;;;26.70;99.90;;;;;;5004624;28;20452;-55
2021/07/04 09:22:39;;;;;;;8.47;7.97;;;26.90;99.90;;;;;;5005168;28;20434;-51
2021/07/04 09:25:13;;;;;;;8.50;8.00;;;27.10;99.90;;;;;;5005117;28;20440;-53
2021/07/04 09:27:41;;;;;;;8.90;8.30;;;27.10;99.90;;;;;;5005094;28;20804;-55
2021/07/04 09:30:11;;;;;;;8.60;8.10;;;27.20;99.90;;;;;;5004723;28;20434;-54
2021/07/04 09:32:36;;;;;;;8.33;7.83;;;27.10;99.90;;;;;;5005527;28;20434;-51
2021/07/04 09:35:10;;;;;;;8.13;7.63;;;27.20;99.90;;;;;;5028829;28;20455;-55
2021/07/04 09:37:39;;;;;;;7.27;6.77;;;27.40;99.90;;;;;;5040766;28;20702;-52
2021/07/04 09:40:16;;;;;;;7.47;6.97;;;27.60;99.90;;;;;;5042568;28;20473;-54
2021/07/04 09:42:53;;;;;;;7.60;7.10;;;27.80;99.90;;;;;;5049954;28;20495;-54
2021/07/04 09:45:20;;;;;;;8.37;7.87;;;28.00;99.90;;;;;;5051307;28;20183;-55
2021/07/04 09:47:57;;;;;;;7.80;7.30;;;28.10;99.90;;;;;;5051119;28;20508;-52
2021/07/04 09:50:24;;;;;;;7.20;6.80;;;28.20;99.90;;;;;;5042334;28;20490;-52
2021/07/04 09:53:02;;;;;;;7.43;7.03;;;28.30;99.90;;;;;;5043596;28;20429;-54
2021/07/04 09:55:30;;;;;;;6.33;5.93;;;28.30;99.90;;;;;;5040701;28;20503;-53
2021/07/04 09:58:05;;;;;;;7.50;7.00;;;28.30;99.90;;;;;;5046943;28;20432;-55
2021/07/04 10:00:33;;;;;;;7.30;6.90;;;28.40;99.90;;;;;;5045083;28;20466;-52
2021/07/04 10:03:12;;;;;;;7.67;6.97;;;28.50;99.90;;;;;;5034865;28;20425;-54
2021/07/04 10:05:41;;;;;;;7.90;7.30;;;28.60;99.90;;;;;;5043929;28;20424;-54
2021/07/04 10:08:25;;;;;;;7.50;7.10;;;28.60;99.90;;;;;;5033647;28;20421;-55
2021/07/04 10:10:53;;;;;;;7.37;6.97;;;28.70;99.90;;;;;;5046951;28;20816;-53
2021/07/04 10:13:19;;;;;;;6.90;6.50;;;28.60;99.90;;;;;;5051540;28;20463;-50
2021/07/04 10:15:45;;;;;;;6.73;6.33;;;28.60;99.90;;;;;;5051476;28;20408;-56
2021/07/04 10:18:12;;;;;;;7.53;7.13;;;28.60;99.90;;;;;;5052105;28;20194;-56
2021/07/04 10:20:39;;;;;;;7.57;7.10;;;28.60;99.90;;;;;;5039242;28;20472;-53
2021/07/04 10:23:11;;;;;;;7.83;7.43;;;28.60;99.90;;;;;;5033059;28;20441;-55
2021/07/04 10:25:36;;;;;;;6.80;6.30;;;28.60;99.90;;;;;;5031858;28;20512;-54
2021/07/04 10:28:03;;;;;;;6.93;6.45;;;28.70;99.90;;;;;;5047421;28;20984;-55
2021/07/04 10:30:31;;;;;;;8.00;7.30;;;28.70;99.90;;;;;;5061430;28;20197;-55
2021/07/04 10:33:19;;;;;;;7.37;6.97;;;29.00;99.90;;;;;;5046101;28;21396;-53
2021/07/04 10:36:01;;;;;;;7.73;7.23;;;29.00;99.90;;;;;;5052060;28;20470;-55
2021/07/04 10:38:53;;;;;;;6.90;6.50;;;29.10;99.90;;;;;;5046439;28;20451;-53
2021/07/04 10:41:22;;;;;;;7.60;7.20;;;29.30;99.90;;;;;;5033514;28;20413;-51
2021/07/04 10:43:53;;;;;;;6.77;6.17;;;29.50;99.90;;;;;;5040234;28;20182;-54
2021/07/04 10:46:42;;;;;;;6.40;6.10;;;29.70;99.90;;;;;;5056513;28;20420;-52
2021/07/04 10:49:32;;;;;;;7.30;6.73;;;29.80;99.90;;;;;;5049356;28;20455;-54
2021/07/04 10:52:03;;;;;;;6.73;6.33;;;29.60;99.90;;;;;;5031037;28;20503;-52
2021/07/04 10:54:40;;;;;;;6.90;6.50;;;29.50;99.90;;;;;;5031565;28;20821;-55
2021/07/04 10:57:11;;;;;;;6.83;6.43;;;29.80;99.90;;;;;;5036930;28;20975;-52
2021/07/04 10:59:50;;;;;;;7.43;7.03;;;29.90;99.90;;;;;;5049792;28;20474;-55
2021/07/04 11:02:50;;;;;;;7.60;7.20;;;30.00;99.90;;;;;;5045408;28;20194;-52
2021/07/04 11:05:38;;;;;;;7.53;7.03;;;30.30;99.90;;;;;;5023915;28;20463;-51
2021/07/04 11:08:11;;;;;;;8.10;7.60;;;30.30;99.90;;;;;;5027294;28;20539;-67
2021/07/04 11:10:48;;;;;;;7.57;7.17;;;30.60;99.90;;;;;;5029752;28;20791;-67
2021/07/04 11:13:19;;;;;;;8.23;7.70;;;30.60;99.90;;;;;;5029771;28;20498;-67
2021/07/04 11:15:50;;;;;;;7.57;7.17;;;30.80;99.90;;;;;;5030328;28;20801;-71
2021/07/04 11:18:19;;;;;;;7.60;7.10;;;30.90;99.90;;;;;;5029597;28;20418;-66
2021/07/04 11:20:46;;;;;;;8.10;7.60;;;30.90;99.90;;;;;;5039448;28;20432;-67
2021/07/04 11:23:22;;;;;;;8.13;7.63;;;31.00;99.90;;;;;;5048856;28;20439;-67
2021/07/04 11:25:56;;;;;;;7.43;7.03;;;31.20;99.90;;;;;;5045325;28;20925;-67
2021/07/04 11:28:30;;;;;;;7.50;7.10;;;31.30;99.90;;;;;;5043555;28;20429;-67
2021/07/04 11:31:07;;;;;;;7.43;6.93;;;31.40;99.90;;;;;;5045513;28;20428;-67
2021/07/04 11:33:38;;;;;;;7.37;6.87;;;31.70;99.90;;;;;;5042028;28;20497;-66
2021/07/04 11:36:16;;;;;;;7.40;7.00;;;31.80;99.90;;;;;;5048044;28;20424;-67
2021/07/04 11:39:01;;;;;;;7.43;6.93;;;32.00;99.90;;;;;;5042085;28;20636;-67
2021/07/04 11:41:37;;;;;;;7.70;7.30;;;32.10;99.90;;;;;;5043460;28;20425;-68
2021/07/04 11:44:11;;;;;;;7.30;6.97;;;32.20;99.90;;;;;;5048329;28;20416;-67
2021/07/04 11:46:40;;;;;;;7.37;6.87;;;32.30;99.90;;;;;;5048530;28;20518;-67
2021/07/04 11:49:10;;;;;;;7.53;7.13;;;32.20;99.90;;;;;;5047181;28;20519;-67
2021/07/04 11:51:43;;;;;;;7.80;7.40;;;32.20;99.90;;;;;;5041935;28;20496;-67
2021/07/04 11:54:29;;;;;;;7.57;7.17;;;32.20;99.90;;;;;;5029443;28;20826;-65
2021/07/04 12:00:07;;;;;;;7.73;7.17;;;32.40;99.90;;;;;;5041060;28;21402;-68
2021/07/04 12:02:42;;;;;;;7.40;7.00;;;32.50;99.90;;;;;;5038642;28;20817;-67
2021/07/04 12:05:13;;;;;;;7.33;6.93;;;32.60;99.90;;;;;;5033940;28;20424;-67
2021/07/04 12:07:39;;;;;;;7.53;7.13;;;32.70;99.90;;;;;;5036062;28;20907;-67
2021/07/04 12:10:06;;;;;;;7.57;7.18;;;33.00;99.90;;;;;;5032677;28;20664;-67
2021/07/04 12:12:34;;;;;;;8.33;7.83;;;33.00;99.90;;;;;;5036617;28;20182;-67
2021/07/04 12:15:06;;;;;;;7.50;7.10;;;32.70;99.90;;;;;;5032270;28;20461;-67
2021/07/04 12:17:44;;;;;;;8.53;8.03;;;32.50;99.90;;;;;;5032335;28;20447;-67
2021/07/04 12:20:14;;;;;;;7.47;7.07;;;32.50;99.90;;;;;;5038502;28;20427;-67
2021/07/04 12:22:51;;;;;;;7.90;7.40;;;32.00;99.90;;;;;;5035624;28;21001;-65
2021/07/04 12:25:27;;;;;;;7.57;7.17;;;32.00;99.90;;;;;;5055618;28;20421;-66
2021/07/04 12:28:15;;;;;;;6.50;6.20;;;32.10;99.90;;;;;;5033435;28;20911;-67
2021/07/04 12:30:50;;;;;;;7.80;7.40;;;32.30;99.90;;;;;;5032198;28;20186;-64
2021/07/04 12:33:18;;;;;;;7.80;7.30;;;32.20;99.90;;;;;;5042780;28;20455;-67
2021/07/04 12:35:45;;;;;;;7.73;7.33;;;32.30;99.90;;;;;;5032373;28;20471;-68
2021/07/04 12:38:13;;;;;;;7.65;7.25;;;32.40;99.90;;;;;;5036422;28;20423;-67
2021/07/04 12:41:02;;;;;;;7.50;7.10;;;32.70;99.90;;;;;;5035157;28;20183;-68
2021/07/04 12:43:36;;;;;;;8.10;7.70;;;32.90;99.90;;;;;;5039827;28;20495;-67
2021/07/04 12:46:17;;;;;;;8.03;7.63;;;33.10;99.90;;;;;;5036438;28;20431;-64